createdAt,value
2019-04-28T00:00:57.906Z,3.90
2019-04-28T00:03:26.527Z,4.63
2019-04-28T00:05:55.310Z,4.33
2019-04-28T00:08:24.107Z,4.37
2019-04-28T00:10:53.461Z,4.43
2019-04-28T00:13:22.151Z,4.40
2019-04-28T00:15:52.818Z,4.20
2019-04-28T00:18:21.970Z,4.17
2019-04-28T00:21:10.971Z,4.50
2019-04-28T00:23:48.975Z,4.30
2019-04-28T00:26:37.260Z,4.23
2019-04-28T00:29:06.032Z,4.43
2019-04-28T00:31:34.691Z,4.13
2019-04-28T00:34:03.532Z,4.33
2019-04-28T00:36:32.345Z,4.27
2019-04-28T00:39:01.560Z,4.50
2019-04-28T00:41:32.381Z,4.57
2019-04-28T00:44:01.930Z,4.70
2019-04-28T00:46:34.373Z,5.20
2019-04-28T00:49:03.192Z,5.60
2019-04-28T00:51:31.975Z,5.80
2019-04-28T00:54:00.900Z,5.73
2019-04-28T00:56:31.577Z,5.90
2019-04-28T00:59:01.625Z,6.13
2019-04-28T01:01:37.581Z,6.30
2019-04-28T01:04:06.269Z,6.70
2019-04-28T01:06:35.101Z,6.87
2019-04-28T01:09:07.115Z,7.20
2019-04-28T01:11:38.147Z,7.63
2019-04-28T01:14:06.934Z,7.40
2019-04-28T01:16:49.820Z,8.40
2019-04-28T01:19:23.680Z,8.27
2019-04-28T01:22:11.141Z,8.40
2019-04-28T01:24:40.795Z,9.47
2019-04-28T01:27:20.986Z,9.07
2019-04-28T01:29:50.216Z,9.60
2019-04-28T01:32:31.364Z,9.53
2019-04-28T01:35:00.160Z,10.50
2019-04-28T01:37:29.600Z,10.20
2019-04-28T01:39:59.703Z,10.90
2019-04-28T01:42:30.206Z,10.97
2019-04-28T01:45:00.661Z,10.87
2019-04-28T01:47:30.662Z,11.27
2019-04-28T01:50:00.183Z,11.90
2019-04-28T01:52:30.374Z,12.80
2019-04-28T01:55:00.517Z,13.23
2019-04-28T01:57:29.884Z,12.97
2019-04-28T01:59:59.743Z,13.83
2019-04-28T02:02:30.100Z,13.53
2019-04-28T02:04:59.904Z,14.80
2019-04-28T02:07:32.623Z,16.70
2019-04-28T02:10:00.736Z,16.20
2019-04-28T02:12:31.121Z,16.70
2019-04-28T02:15:01.029Z,16.27
2019-04-28T02:17:31.709Z,18.43
2019-04-28T02:20:00.773Z,17.73
2019-04-28T02:22:47.763Z,18.90
2019-04-28T02:25:16.335Z,18.50
2019-04-28T02:27:45.010Z,19.70
2019-04-28T02:30:14.105Z,19.13
2019-04-28T02:32:42.948Z,18.40
2019-04-28T02:35:11.684Z,19.83
2019-04-28T02:37:40.767Z,20.73
2019-04-28T02:40:10.618Z,22.60
2019-04-28T02:42:41.001Z,22.87
2019-04-28T02:45:11.576Z,23.23
2019-04-28T02:47:42.276Z,22.93
2019-04-28T02:50:33.041Z,23.00
2019-04-28T02:53:16.053Z,23.37
2019-04-28T02:55:44.851Z,23.67
2019-04-28T02:58:13.826Z,23.50
2019-04-28T03:01:00.375Z,24.20
2019-04-28T03:03:13.282Z,25.83
2019-04-28T03:05:41.902Z,24.00
2019-04-28T03:08:11.258Z,25.90
2019-04-28T03:10:41.018Z,24.37
2019-04-28T03:13:13.432Z,25.30
2019-04-28T03:15:42.573Z,23.73
2019-04-28T03:18:11.674Z,23.97
2019-04-28T03:20:41.952Z,23.97
2019-04-28T03:23:12.349Z,19.73
2019-04-28T03:26:12.822Z,21.43
2019-04-28T03:28:51.373Z,22.13
2019-04-28T03:32:07.563Z,23.07
2019-04-28T03:34:13.197Z,20.90
2019-04-28T03:36:41.995Z,22.67
2019-04-28T03:39:11.163Z,21.40
2019-04-28T03:41:40.648Z,21.83
2019-04-28T03:44:11.492Z,20.27
2019-04-28T03:46:47.123Z,20.73
2019-04-28T03:49:33.237Z,18.43
2019-04-28T03:52:02.941Z,21.03
2019-04-28T03:54:31.734Z,21.00
2019-04-28T03:57:01.345Z,20.03
2019-04-28T03:59:31.183Z,19.90
2019-04-28T04:02:03.241Z,20.93
2019-04-28T04:04:32.204Z,21.10
2019-04-28T04:07:01.482Z,19.80
2019-04-28T04:10:00.769Z,18.97
2019-04-28T04:12:41.002Z,18.50
2019-04-28T04:15:15.905Z,19.30
2019-04-28T04:18:02.236Z,18.47
2019-04-28T04:20:31.206Z,17.57
2019-04-28T04:23:01.395Z,18.80
2019-04-28T04:25:31.633Z,17.03
2019-04-28T04:28:03.521Z,18.67
2019-04-28T04:30:31.361Z,18.10
2019-04-28T04:33:01.269Z,16.87
2019-04-28T04:35:31.551Z,18.73
2019-04-28T04:38:00.736Z,20.57
2019-04-28T04:40:31.812Z,19.03
2019-04-28T04:43:01.689Z,22.33
2019-04-28T04:45:30.742Z,20.27
2019-04-28T04:48:00.675Z,21.43
2019-04-28T04:50:31.323Z,21.90
2019-04-28T04:53:02.723Z,22.60
2019-04-28T04:55:32.170Z,22.13
2019-04-28T04:58:00.971Z,20.90
2019-04-28T05:00:40.464Z,19.43
2019-04-28T05:03:17.509Z,18.13
2019-04-28T05:05:46.322Z,18.60
2019-04-28T05:08:15.642Z,18.20
2019-04-28T05:10:44.780Z,18.57
2019-04-28T05:13:13.418Z,17.30
2019-04-28T05:15:42.121Z,18.73
2019-04-28T05:18:10.789Z,18.60
2019-04-28T05:20:40.371Z,18.10
2019-04-28T05:23:37.649Z,19.10
2019-04-28T05:26:07.924Z,17.97
2019-04-28T05:28:36.939Z,19.00
2019-04-28T05:31:07.058Z,18.53
2019-04-28T05:33:35.918Z,17.83
2019-04-28T05:36:05.201Z,15.60
2019-04-28T05:38:34.081Z,16.57
2019-04-28T05:41:02.983Z,16.53
2019-04-28T05:43:31.754Z,16.00
2019-04-28T05:46:00.390Z,14.87
2019-04-28T05:48:44.643Z,14.13
2019-04-28T05:51:16.959Z,14.40
2019-04-28T05:53:53.716Z,12.93
2019-04-28T05:56:44.467Z,12.83
2019-04-28T05:59:17.261Z,12.00
2019-04-28T06:02:12.901Z,10.30
2019-04-28T06:04:41.540Z,10.73
2019-04-28T06:07:25.030Z,9.70
2019-04-28T06:09:54.481Z,9.50
2019-04-28T06:12:23.009Z,9.43
2019-04-28T06:14:51.619Z,8.83
2019-04-28T06:17:21.421Z,9.17
2019-04-28T06:19:50.524Z,8.50
2019-04-28T06:22:21.474Z,10.10
2019-04-28T06:24:51.676Z,11.33
2019-04-28T06:27:20.307Z,11.63
2019-04-28T06:29:50.769Z,11.90
2019-04-28T06:32:19.359Z,12.57
2019-04-28T06:34:51.694Z,13.53
2019-04-28T06:37:20.473Z,11.83
2019-04-28T06:42:45.734Z,3.72
2019-04-28T15:22:25.932Z,2.13
2019-04-28T15:24:54.796Z,21.63
2019-04-28T15:27:23.583Z,6.20
2019-04-28T15:29:52.852Z,32.50
2019-04-28T15:32:23.814Z,2.63
2019-04-28T15:34:52.531Z,20.67
2019-04-28T15:37:22.121Z,9.60
2019-04-28T15:39:51.371Z,6.40
2019-04-28T15:42:20.708Z,4.30
2019-04-28T15:44:49.853Z,3.30
2019-04-28T15:47:22.319Z,11.60
2019-04-28T15:49:54.493Z,16.20
2019-04-28T15:52:24.479Z,5.43
2019-04-28T15:54:56.912Z,2.00
2019-04-28T15:57:25.847Z,1.50
2019-04-28T15:59:59.682Z,1.60
2019-04-28T16:02:28.529Z,2.10
2019-04-28T16:04:57.394Z,1.90
2019-04-28T16:07:26.145Z,2.30
2019-04-28T16:09:55.692Z,1.90
2019-04-28T16:12:24.345Z,2.30
2019-04-28T16:14:57.031Z,2.40
2019-04-28T16:17:25.678Z,2.83
2019-04-28T16:19:55.540Z,2.97
2019-04-28T16:22:26.720Z,2.47
2019-04-28T16:24:55.382Z,3.80
2019-04-28T16:27:25.222Z,2.30
2019-04-28T16:29:54.034Z,2.20
2019-04-28T16:32:23.835Z,4.87
2019-04-28T16:34:52.650Z,3.70
2019-04-28T16:37:21.432Z,3.10
2019-04-28T16:39:51.162Z,4.37
2019-04-28T16:42:19.643Z,5.47
2019-04-28T16:44:48.496Z,3.20
2019-04-28T16:47:17.162Z,2.80
2019-04-28T16:49:45.771Z,2.70
2019-04-28T16:52:14.573Z,2.60
2019-04-28T16:54:43.274Z,3.03
2019-04-28T16:57:35.510Z,2.90
2019-04-28T17:00:24.274Z,2.73
2019-04-28T17:02:53.675Z,3.63
2019-04-28T17:05:22.536Z,3.20
2019-04-28T17:07:53.130Z,2.60
2019-04-28T17:10:22.857Z,1.80
2019-04-28T17:12:52.429Z,2.80
2019-04-28T17:15:21.813Z,2.60
2019-04-28T17:17:53.059Z,3.10
2019-04-28T17:20:21.747Z,3.00
2019-04-28T17:22:55.459Z,2.93
2019-04-28T17:25:26.303Z,2.60
2019-04-28T17:27:55.008Z,3.43
2019-04-28T17:30:24.487Z,3.10
2019-04-28T17:32:53.123Z,2.53
2019-04-28T17:35:22.222Z,2.70
2019-04-28T17:37:50.975Z,3.10
2019-04-28T17:40:20.089Z,3.07
2019-04-28T17:42:48.897Z,2.70
2019-04-28T17:45:18.631Z,2.30
2019-04-28T17:47:47.753Z,3.90
2019-04-28T17:50:18.271Z,2.80
2019-04-28T17:52:46.991Z,1.80
2019-04-28T17:55:15.709Z,1.90
2019-04-28T17:57:44.235Z,1.83
2019-04-28T18:00:29.115Z,2.20
2019-04-28T18:03:22.237Z,1.77
2019-04-28T18:05:56.718Z,1.53
2019-04-28T18:08:26.904Z,1.70
2019-04-28T18:10:55.638Z,1.70
2019-04-28T18:13:24.467Z,1.70
2019-04-28T18:16:01.254Z,2.00
2019-04-28T18:18:36.602Z,1.87
2019-04-28T18:21:05.536Z,2.00
2019-04-28T18:23:34.387Z,2.20
2019-04-28T18:26:03.111Z,1.87
2019-04-28T18:28:31.920Z,2.00
2019-04-28T18:31:11.715Z,2.40
2019-04-28T18:33:58.537Z,3.07
2019-04-28T18:36:34.352Z,2.13
2019-04-28T18:39:21.296Z,2.10
2019-04-28T18:42:09.311Z,2.90
2019-04-28T18:44:38.246Z,3.80
2019-04-28T18:47:06.907Z,2.90
2019-04-28T18:49:35.618Z,2.90
2019-04-28T18:52:04.366Z,2.53
2019-04-28T18:54:33.132Z,2.40
2019-04-28T18:57:01.758Z,2.20
2019-04-28T18:59:31.684Z,2.10
2019-04-28T19:02:24.089Z,2.00
2019-04-28T19:04:52.734Z,2.20
2019-04-28T19:07:35.931Z,2.00
2019-04-28T19:10:14.857Z,2.00
2019-04-28T19:12:58.077Z,2.50
2019-04-28T19:15:49.233Z,2.30
2019-04-28T19:18:23.550Z,2.60
2019-04-28T19:20:52.285Z,3.70
2019-04-28T19:23:20.944Z,3.27
2019-04-28T19:25:49.676Z,4.37
2019-04-28T19:28:18.248Z,2.73
2019-04-28T19:30:47.156Z,3.03
2019-04-28T19:33:15.974Z,2.07
2019-04-28T19:35:44.759Z,1.40
2019-04-28T19:38:13.264Z,1.27
2019-04-28T19:40:41.962Z,1.40
2019-04-28T19:43:10.505Z,1.50
2019-04-28T19:45:41.116Z,1.37
2019-04-28T19:48:10.105Z,1.60
2019-04-28T19:50:38.925Z,1.80
2019-04-28T19:53:07.783Z,1.80
2019-04-28T19:55:40.787Z,1.50
2019-04-28T19:58:20.691Z,1.50
2019-04-28T20:01:00.902Z,1.80
2019-04-28T20:03:29.548Z,2.00
2019-04-28T20:05:58.210Z,1.80
2019-04-28T20:08:27.040Z,1.60
2019-04-28T20:10:55.786Z,1.30
2019-04-28T20:13:24.560Z,1.10
2019-04-28T20:15:53.362Z,1.20
2019-04-28T20:18:21.924Z,1.40
2019-04-28T20:20:50.777Z,1.10
2019-04-28T20:23:19.392Z,1.20
2019-04-28T20:25:48.241Z,1.40
2019-04-28T20:28:17.066Z,1.47
2019-04-28T20:30:46.899Z,1.57
2019-04-28T20:33:15.577Z,1.40
2019-04-28T20:35:49.744Z,1.40
2019-04-28T20:38:31.062Z,1.50
2019-04-28T20:41:15.198Z,1.30
2019-04-28T20:43:43.778Z,1.40
2019-04-28T20:46:12.403Z,1.40
2019-04-28T20:48:41.303Z,1.60
2019-04-28T20:51:09.839Z,1.40
2019-04-28T20:53:38.507Z,1.20
2019-04-28T20:56:07.262Z,1.27
2019-04-28T20:58:35.969Z,1.30
2019-04-28T21:01:04.731Z,1.13
2019-04-28T21:03:33.537Z,1.20
2019-04-28T21:06:02.211Z,1.20
2019-04-28T21:08:30.879Z,1.17
2019-04-28T21:10:59.650Z,1.23
2019-04-28T21:13:28.419Z,1.10
2019-04-28T21:15:56.929Z,1.60
2019-04-28T21:18:25.663Z,1.43
2019-04-28T21:20:54.211Z,1.50
2019-04-28T21:23:22.847Z,1.20
2019-04-28T21:25:51.591Z,1.10
2019-04-28T21:28:20.446Z,1.17
2019-04-28T21:30:49.389Z,1.23
2019-04-28T21:33:18.156Z,0.97
2019-04-28T21:35:46.973Z,1.20
2019-04-28T21:38:15.456Z,1.10
2019-04-28T21:40:44.334Z,1.00
2019-04-28T21:43:28.370Z,1.03
2019-04-28T21:46:22.023Z,0.93
2019-04-28T21:48:53.165Z,1.03
2019-04-28T21:51:22.001Z,1.10
2019-04-28T21:53:50.773Z,1.00
2019-04-28T21:56:19.596Z,1.10
2019-04-28T21:58:48.235Z,1.20
2019-04-28T22:01:20.145Z,1.20
2019-04-28T22:03:48.969Z,1.20
2019-04-28T22:06:17.753Z,1.10
2019-04-28T22:08:46.408Z,1.10
2019-04-28T22:11:14.901Z,1.10
2019-04-28T22:13:43.587Z,1.10
2019-04-28T22:16:12.140Z,1.20
2019-04-28T22:18:40.816Z,1.17
2019-04-28T22:21:09.480Z,1.10
2019-04-28T22:24:06.664Z,1.10
2019-04-28T22:26:48.844Z,1.07
2019-04-28T22:29:17.453Z,1.00
2019-04-28T22:31:46.348Z,1.10
2019-04-28T22:34:15.393Z,1.00
2019-04-28T22:36:44.972Z,1.00
2019-04-28T22:39:14.733Z,1.07
2019-04-28T22:41:43.532Z,1.10
2019-04-28T22:44:13.615Z,1.00
2019-04-28T22:46:43.502Z,1.00
2019-04-28T22:49:12.293Z,0.93
2019-04-28T22:51:41.072Z,1.03
2019-04-28T22:54:21.656Z,1.10
2019-04-28T22:56:56.634Z,1.00
2019-04-28T22:59:32.138Z,1.10
2019-04-28T23:02:09.637Z,0.97
2019-04-28T23:04:46.905Z,1.10
2019-04-28T23:07:15.664Z,0.90
2019-04-28T23:09:44.294Z,1.10
2019-04-28T23:12:13.658Z,1.00
2019-04-28T23:14:42.327Z,0.90
2019-04-28T23:17:13.765Z,0.90
2019-04-28T23:19:43.545Z,1.00
2019-04-28T23:22:46.802Z,1.00
2019-04-28T23:25:08.420Z,1.10
2019-04-28T23:27:37.266Z,1.10
2019-04-28T23:30:07.966Z,1.20
2019-04-28T23:32:36.576Z,1.10
2019-04-28T23:35:06.348Z,1.00
2019-04-28T23:37:35.248Z,1.30
2019-04-28T23:40:05.192Z,1.10
2019-04-28T23:42:42.097Z,1.20
2019-04-28T23:45:12.283Z,1.10
2019-04-28T23:47:41.193Z,1.40
2019-04-28T23:50:12.135Z,1.10
2019-04-28T23:53:00.242Z,1.03
2019-04-28T23:55:29.124Z,1.20
2019-04-28T23:57:57.864Z,1.00
